createdAt,value
2023-04-01T00:01:22.591Z,17.13
2023-04-01T00:03:49.646Z,16.73
2023-04-01T00:06:19.526Z,18.77
2023-04-01T00:08:47.418Z,18.13
2023-04-01T00:11:15.925Z,16.10
2023-04-01T00:13:43.385Z,16.00
2023-04-01T00:16:21.180Z,17.77
2023-04-01T00:18:51.150Z,16.47
2023-04-01T00:21:19.290Z,19.97
2023-04-01T00:23:46.212Z,17.57
2023-04-01T00:26:13.712Z,19.37
2023-04-01T00:28:41.540Z,17.43
2023-04-01T00:31:10.725Z,18.53
2023-04-01T00:33:38.997Z,15.50
2023-04-01T00:36:10.862Z,14.73
2023-04-01T00:38:38.916Z,13.70
2023-04-01T00:41:06.865Z,15.80
2023-04-01T00:43:34.479Z,15.77
2023-04-01T00:46:01.580Z,14.37
2023-04-01T00:48:35.414Z,15.40
2023-04-01T00:51:15.212Z,15.67
2023-04-01T00:53:49.644Z,14.93
2023-04-01T00:56:27.929Z,15.40
2023-04-01T00:59:01.261Z,15.67
2023-04-01T01:01:31.626Z,14.00
2023-04-01T01:03:58.738Z,12.10
2023-04-01T01:07:02.122Z,16.87
2023-04-01T01:09:46.770Z,12.73
2023-04-01T01:12:24.447Z,14.27
2023-04-01T01:15:48.636Z,16.57
2023-04-01T01:18:45.106Z,11.80
2023-04-01T01:21:36.529Z,14.40
2023-04-01T01:24:06.236Z,15.00
2023-04-01T01:26:58.666Z,16.70
2023-04-01T01:29:37.806Z,16.07
2023-04-01T01:32:23.328Z,15.17
2023-04-01T01:35:17.575Z,20.00
2023-04-01T01:37:46.991Z,14.10
2023-04-01T01:40:16.613Z,13.37
2023-04-01T01:42:51.511Z,13.80
2023-04-01T01:45:22.669Z,15.23
2023-04-01T01:47:51.206Z,15.30
2023-04-01T01:50:19.942Z,14.10
2023-04-01T01:52:46.816Z,14.77
2023-04-01T01:55:36.411Z,14.17
2023-04-01T01:58:31.532Z,14.77
2023-04-01T02:01:02.352Z,14.90
2023-04-01T02:03:33.994Z,12.77
2023-04-01T02:06:02.843Z,16.03
2023-04-01T02:08:45.848Z,13.17
2023-04-01T02:11:16.986Z,15.10
2023-04-01T02:13:58.299Z,17.00
2023-04-01T02:16:49.217Z,15.70
2023-04-01T02:19:23.504Z,16.10
2023-04-01T02:22:00.639Z,14.13
2023-04-01T02:24:31.791Z,16.73
2023-04-01T02:26:58.802Z,21.30
2023-04-01T02:29:26.741Z,15.73
2023-04-01T02:31:55.259Z,15.07
2023-04-01T02:34:24.351Z,14.87
2023-04-01T02:36:52.393Z,14.23
2023-04-01T02:39:19.915Z,15.67
2023-04-01T02:41:47.491Z,19.27
2023-04-01T02:44:15.897Z,16.43
2023-04-01T02:46:44.522Z,13.33
2023-04-01T02:49:12.070Z,15.67
2023-04-01T02:51:39.086Z,18.20
2023-04-01T02:54:06.760Z,21.93
2023-04-01T02:56:33.713Z,18.03
2023-04-01T02:59:00.685Z,21.80
2023-04-01T03:01:27.716Z,19.43
2023-04-01T03:03:54.633Z,20.97
2023-04-01T03:06:21.605Z,20.13
2023-04-01T03:08:48.592Z,19.03
2023-04-01T03:11:16.054Z,14.40
2023-04-01T03:13:43.096Z,15.07
2023-04-01T03:16:11.417Z,17.43
2023-04-01T03:18:38.341Z,21.53
2023-04-01T03:21:23.421Z,15.03
2023-04-01T03:23:51.064Z,16.63
2023-04-01T03:26:19.107Z,16.20
2023-04-01T03:28:46.090Z,14.47
2023-04-01T03:31:13.259Z,18.23
2023-04-01T03:33:47.018Z,16.10
2023-04-01T03:36:14.437Z,16.43
2023-04-01T03:38:42.180Z,18.33
2023-04-01T03:41:14.338Z,14.33
2023-04-01T03:43:42.070Z,14.73
2023-04-01T03:46:09.140Z,16.87
2023-04-01T03:48:36.473Z,18.97
2023-04-01T03:51:08.062Z,15.07
2023-04-01T03:53:35.001Z,13.80
2023-04-01T03:56:09.423Z,14.30
2023-04-01T03:58:37.483Z,15.80
2023-04-01T04:01:15.590Z,11.50
2023-04-01T04:03:42.626Z,11.40
2023-04-01T04:06:12.789Z,12.83
2023-04-01T04:08:39.990Z,14.50
2023-04-01T04:11:07.106Z,15.10
2023-04-01T04:13:37.656Z,13.50
2023-04-01T04:16:05.453Z,14.93
2023-04-01T04:18:33.920Z,15.93
2023-04-01T04:21:04.070Z,16.37
2023-04-01T04:23:34.455Z,18.23
2023-04-01T04:26:07.948Z,18.43
2023-04-01T04:28:35.746Z,19.90
2023-04-01T04:31:03.610Z,18.60
2023-04-01T04:33:30.676Z,19.03
2023-04-01T04:35:59.014Z,15.00
2023-04-01T04:38:26.673Z,17.90
2023-04-01T04:40:54.698Z,21.80
2023-04-01T04:43:22.179Z,25.67
2023-04-01T04:45:49.543Z,30.77
2023-04-01T04:48:19.699Z,28.37
2023-04-01T04:50:49.669Z,22.00
2023-04-01T04:53:19.784Z,22.70
2023-04-01T04:55:48.909Z,18.80
2023-04-01T04:58:34.900Z,15.73
2023-04-01T05:01:14.227Z,13.70
2023-04-01T05:03:41.500Z,12.40
2023-04-01T05:06:09.713Z,13.93
2023-04-01T05:08:37.499Z,13.70
2023-04-01T05:11:04.466Z,15.20
2023-04-01T05:13:33.916Z,20.47
2023-04-01T05:16:00.865Z,14.20
2023-04-01T05:18:27.859Z,12.53
2023-04-01T05:20:55.954Z,13.23
2023-04-01T05:23:23.728Z,14.97
2023-04-01T05:25:52.199Z,14.30
2023-04-01T05:28:20.269Z,14.80
2023-04-01T05:30:48.161Z,16.40
2023-04-01T05:33:22.432Z,19.33
2023-04-01T05:35:50.047Z,21.77
2023-04-01T05:38:17.237Z,19.00
2023-04-01T05:40:44.337Z,19.07
2023-04-01T05:43:11.436Z,15.60
2023-04-01T05:45:38.787Z,17.63
2023-04-01T05:48:14.717Z,14.50
2023-04-01T05:50:42.930Z,18.07
2023-04-01T05:53:11.353Z,12.70
2023-04-01T05:55:41.012Z,14.47
2023-04-01T05:58:08.216Z,13.77
2023-04-01T06:00:37.005Z,14.97
2023-04-01T06:03:04.158Z,15.23
2023-04-01T06:05:43.846Z,13.87
2023-04-01T06:08:20.416Z,13.77
2023-04-01T06:11:07.041Z,21.23
2023-04-01T06:14:01.660Z,14.93
2023-04-01T06:16:45.092Z,17.50
2023-04-01T06:19:40.310Z,14.80
2023-04-01T06:22:23.430Z,13.13
2023-04-01T06:25:17.411Z,12.97
2023-04-01T06:27:47.554Z,17.53
2023-04-01T06:30:32.957Z,29.80
2023-04-01T06:33:03.438Z,25.93
2023-04-01T06:35:38.583Z,20.17
2023-04-01T06:38:15.582Z,17.30
2023-04-01T06:41:01.893Z,20.63
2023-04-01T06:44:06.355Z,27.23
2023-04-01T06:47:00.681Z,23.70
2023-04-01T06:49:51.043Z,28.70
2023-04-01T06:52:45.953Z,19.27
2023-04-01T06:55:47.155Z,20.10
2023-04-01T06:59:06.049Z,20.30
2023-04-01T07:01:56.456Z,20.43
2023-04-01T07:04:42.312Z,22.47
2023-04-01T07:07:40.378Z,21.33
2023-04-01T07:10:35.157Z,26.73
2023-04-01T07:13:27.325Z,25.00
2023-04-01T07:16:30.508Z,22.60
2023-04-01T07:19:15.747Z,23.27
2023-04-01T07:22:04.702Z,24.97
2023-04-01T07:24:55.170Z,22.57
2023-04-01T07:27:22.194Z,30.73
2023-04-01T07:29:49.215Z,29.33
2023-04-01T07:32:30.379Z,30.77
2023-04-01T07:35:07.954Z,33.43
2023-04-01T07:38:05.240Z,29.70
2023-04-01T07:40:50.556Z,25.30
2023-04-01T07:43:54.350Z,26.67
2023-04-01T07:46:48.383Z,22.13
2023-04-01T07:49:43.022Z,21.07
2023-04-01T07:52:31.620Z,21.60
2023-04-01T07:55:15.417Z,15.73
2023-04-01T07:58:02.467Z,19.60
2023-04-01T08:00:45.029Z,24.50
2023-04-01T08:03:38.939Z,22.93
2023-04-01T08:06:46.691Z,18.60
2023-04-01T08:09:23.432Z,18.67
2023-04-01T08:12:28.301Z,11.87
2023-04-01T08:15:01.044Z,18.17
2023-04-01T08:17:33.885Z,14.90
2023-04-01T08:20:35.727Z,13.23
2023-04-01T08:23:13.099Z,18.43
2023-04-01T08:25:49.315Z,19.77
2023-04-01T08:28:25.428Z,15.60
2023-04-01T08:31:01.895Z,14.10
2023-04-01T08:33:31.602Z,7.70
2023-04-01T08:36:09.166Z,12.50
2023-04-01T08:38:50.792Z,8.37
2023-04-01T08:41:40.516Z,10.13
2023-04-01T08:44:51.552Z,9.13
2023-04-01T08:47:31.678Z,12.77
2023-04-01T08:50:37.444Z,8.30
2023-04-01T08:53:43.527Z,9.30
2023-04-01T08:56:19.498Z,10.60
2023-04-01T08:59:24.255Z,6.33
2023-04-01T09:02:34.340Z,7.30
2023-04-01T09:05:39.955Z,6.57
2023-04-01T09:08:38.439Z,7.00
2023-04-01T09:11:05.830Z,8.17
2023-04-01T09:15:02.237Z,8.00
2023-04-01T09:17:49.390Z,11.27
2023-04-01T09:20:47.137Z,7.80
2023-04-01T09:23:38.885Z,8.17
2023-04-01T09:26:18.097Z,7.53
2023-04-01T09:29:13.477Z,7.57
2023-04-01T09:31:40.380Z,9.37
2023-04-01T09:34:45.968Z,16.27
2023-04-01T09:38:01.154Z,7.63
2023-04-01T09:40:54.094Z,6.53
2023-04-01T09:43:47.595Z,8.07
2023-04-01T09:46:33.535Z,8.30
2023-04-01T09:49:12.605Z,10.37
2023-04-01T09:51:45.557Z,6.13
2023-04-01T09:54:18.482Z,5.53
2023-04-01T09:57:07.251Z,6.03
2023-04-01T09:59:55.274Z,4.83
2023-04-01T10:02:39.524Z,5.40
2023-04-01T10:05:32.089Z,9.00
2023-04-01T10:08:38.162Z,5.93
2023-04-01T10:11:32.418Z,6.30
2023-04-01T10:14:28.478Z,7.47
2023-04-01T10:17:40.715Z,6.13
2023-04-01T10:20:37.530Z,7.40
2023-04-01T10:23:23.443Z,8.00
2023-04-01T10:26:12.052Z,5.50
2023-04-01T10:29:04.154Z,9.87
2023-04-01T10:32:14.716Z,5.53
2023-04-01T10:35:20.847Z,7.07
2023-04-01T10:37:47.708Z,6.40
2023-04-01T10:40:23.637Z,7.70
2023-04-01T10:43:39.989Z,9.03
2023-04-01T10:46:41.662Z,9.03
2023-04-01T10:49:47.611Z,7.47
2023-04-01T10:52:52.261Z,6.13
2023-04-01T10:56:09.897Z,6.40
2023-04-01T10:58:57.861Z,8.00
2023-04-01T11:02:15.093Z,13.30
2023-04-01T11:05:21.751Z,10.20
2023-04-01T11:08:06.687Z,11.10
2023-04-01T11:11:15.653Z,9.27
2023-04-01T11:14:01.901Z,11.53
2023-04-01T11:16:56.595Z,9.40
2023-04-01T11:19:23.527Z,12.57
2023-04-01T11:21:50.856Z,8.50
2023-04-01T11:24:34.872Z,11.43
2023-04-01T11:27:42.701Z,12.77
2023-04-01T11:30:47.229Z,10.37
2023-04-01T11:33:22.073Z,6.40
2023-04-01T11:35:54.373Z,8.00
2023-04-01T11:39:04.743Z,14.57
2023-04-01T11:42:04.935Z,16.17
2023-04-01T11:45:28.706Z,10.60
2023-04-01T11:48:28.758Z,7.67
2023-04-01T11:51:03.160Z,9.43
2023-04-01T11:53:59.518Z,10.40
2023-04-01T11:56:55.336Z,8.97
2023-04-01T11:59:53.407Z,7.27
2023-04-01T12:02:58.185Z,9.30
2023-04-01T12:05:36.181Z,11.53
2023-04-01T12:08:12.453Z,9.97
2023-04-01T12:11:28.550Z,9.17
2023-04-01T12:14:15.296Z,8.43
2023-04-01T12:16:50.928Z,8.17
2023-04-01T12:19:59.993Z,7.23
2023-04-01T12:22:32.556Z,8.73
2023-04-01T12:25:23.812Z,7.40
2023-04-01T12:28:24.234Z,13.70
2023-04-01T12:31:09.077Z,9.20
2023-04-01T12:33:57.569Z,8.77
2023-04-01T12:36:41.688Z,11.53
2023-04-01T12:39:14.575Z,8.17
2023-04-01T12:41:50.325Z,7.40
2023-04-01T12:44:36.664Z,9.17
2023-04-01T12:47:33.103Z,7.70
2023-04-01T12:50:12.251Z,10.70
2023-04-01T12:53:16.477Z,9.07
2023-04-01T12:55:51.726Z,13.60
2023-04-01T12:58:28.912Z,9.47
2023-04-01T13:01:30.273Z,8.73
2023-04-01T13:04:28.313Z,10.57
2023-04-01T13:07:12.279Z,15.73
2023-04-01T13:09:59.366Z,9.30
2023-04-01T13:12:38.678Z,12.93
2023-04-01T13:15:35.101Z,8.23
2023-04-01T13:18:09.254Z,12.70
2023-04-01T13:20:51.676Z,14.07
2023-04-01T13:23:33.734Z,12.60
2023-04-01T13:26:19.232Z,13.17
2023-04-01T13:29:05.426Z,12.60
2023-04-01T13:32:05.696Z,12.53
2023-04-01T13:34:41.624Z,24.33
2023-04-01T13:37:35.577Z,11.67
2023-04-01T13:40:21.854Z,12.77
2023-04-01T13:42:55.025Z,18.00
2023-04-01T13:45:43.174Z,12.77
2023-04-01T13:48:39.333Z,9.10
2023-04-01T13:51:27.454Z,9.33
2023-04-01T13:54:16.322Z,9.53
2023-04-01T13:57:01.579Z,10.67
2023-04-01T13:59:34.518Z,13.53
2023-04-01T14:02:04.626Z,13.30
2023-04-01T14:04:31.563Z,14.57
2023-04-01T14:07:04.405Z,9.97
2023-04-01T14:09:44.230Z,13.50
2023-04-01T14:12:52.220Z,15.97
2023-04-01T14:15:40.808Z,10.00
2023-04-01T14:18:42.161Z,18.80
2023-04-01T14:21:14.687Z,9.33
2023-04-01T14:24:01.211Z,10.43
2023-04-01T14:26:40.339Z,14.03
2023-04-01T14:29:13.550Z,16.77
2023-04-01T14:32:04.807Z,16.87
2023-04-01T14:34:34.572Z,28.13
2023-04-01T14:37:22.834Z,15.90
2023-04-01T14:40:27.460Z,12.30
2023-04-01T14:43:09.400Z,10.47
2023-04-01T14:45:54.824Z,6.67
2023-04-01T14:48:52.177Z,8.13
2023-04-01T14:51:34.456Z,6.23
2023-04-01T14:54:32.563Z,9.20
2023-04-01T14:57:12.411Z,9.13
2023-04-01T15:00:14.878Z,6.83
2023-04-01T15:03:15.598Z,13.67
2023-04-01T15:05:57.380Z,37.37
2023-04-01T15:08:55.578Z,11.83
2023-04-01T15:11:41.242Z,9.87
2023-04-01T15:14:44.832Z,11.73
2023-04-01T15:17:32.377Z,7.47
2023-04-01T15:20:24.072Z,6.43
2023-04-01T15:23:21.552Z,4.77
2023-04-01T15:26:06.861Z,4.80
2023-04-01T15:28:37.666Z,5.43
2023-04-01T15:31:26.380Z,6.77
2023-04-01T15:34:08.465Z,8.03
2023-04-01T15:36:53.813Z,7.13
2023-04-01T15:39:42.621Z,6.13
2023-04-01T15:42:52.101Z,6.37
2023-04-01T15:45:36.382Z,5.00
2023-04-01T15:48:24.987Z,3.27
2023-04-01T15:51:29.523Z,2.50
2023-04-01T15:54:16.911Z,5.23
2023-04-01T15:57:01.937Z,3.37
2023-04-01T16:00:00.024Z,3.23
2023-04-01T16:02:38.313Z,2.90
2023-04-01T16:05:23.576Z,3.93
2023-04-01T16:08:03.445Z,5.50
2023-04-01T16:10:45.962Z,4.57
2023-04-01T16:13:31.071Z,8.70
2023-04-01T16:16:14.177Z,7.83
2023-04-01T16:18:59.175Z,10.60
2023-04-01T16:21:47.248Z,9.93
2023-04-01T16:24:18.357Z,7.73
2023-04-01T16:27:04.572Z,5.27
2023-04-01T16:29:57.063Z,9.27
2023-04-01T16:32:30.737Z,8.67
2023-04-01T16:35:25.643Z,10.00
2023-04-01T16:38:00.240Z,11.73
2023-04-01T16:40:53.554Z,26.50
2023-04-01T16:43:28.874Z,22.70
2023-04-01T16:46:13.771Z,16.57
2023-04-01T16:49:18.035Z,21.70
2023-04-01T16:51:58.802Z,19.70
2023-04-01T16:54:36.446Z,17.80
2023-04-01T16:57:17.744Z,22.37
2023-04-01T17:00:18.874Z,13.33
2023-04-01T17:02:55.789Z,20.80
2023-04-01T17:05:57.744Z,16.77
2023-04-01T17:08:58.520Z,18.03
2023-04-01T17:11:31.360Z,16.70
2023-04-01T17:14:14.614Z,30.43
2023-04-01T17:16:59.973Z,26.87
2023-04-01T17:19:39.207Z,23.63
2023-04-01T17:22:19.606Z,19.00
2023-04-01T17:25:23.915Z,21.43
2023-04-01T17:27:52.372Z,20.97
2023-04-01T17:30:37.379Z,27.27
2023-04-01T17:33:24.438Z,18.50
2023-04-01T17:36:22.364Z,17.47
2023-04-01T17:39:03.888Z,13.70
2023-04-01T17:41:52.025Z,11.43
2023-04-01T17:44:54.308Z,9.27
2023-04-01T17:47:33.421Z,6.50
2023-04-01T17:50:28.310Z,7.00
2023-04-01T17:53:08.854Z,6.90
2023-04-01T17:56:03.946Z,6.63
2023-04-01T17:58:45.874Z,8.03
2023-04-01T18:01:26.026Z,11.80
2023-04-01T18:03:57.377Z,8.90
2023-04-01T18:06:42.883Z,10.37
2023-04-01T18:09:28.067Z,12.47
2023-04-01T18:12:29.535Z,11.73
2023-04-01T18:15:03.048Z,13.23
2023-04-01T18:18:03.595Z,12.80
2023-04-01T18:20:56.568Z,14.73
2023-04-01T18:23:37.414Z,19.33
2023-04-01T18:26:14.334Z,17.63
2023-04-01T18:28:56.691Z,15.43
2023-04-01T18:31:27.258Z,21.00
2023-04-01T18:33:54.143Z,30.73
2023-04-01T18:36:42.393Z,33.70
2023-04-01T18:39:26.615Z,27.40
2023-04-01T18:42:15.350Z,15.63
2023-04-01T18:44:55.189Z,9.33
2023-04-01T18:47:22.135Z,8.03
2023-04-01T18:50:07.631Z,4.87
2023-04-01T18:52:38.852Z,2.90
2023-04-01T18:55:05.953Z,4.70
2023-04-01T18:57:49.168Z,4.47
2023-04-01T19:00:23.752Z,3.03
2023-04-01T19:03:08.266Z,8.90
2023-04-01T19:05:39.238Z,7.10
2023-04-01T19:08:32.747Z,6.77
2023-04-01T19:11:10.219Z,7.07
2023-04-01T19:13:47.137Z,5.40
2023-04-01T19:16:35.360Z,6.80
2023-04-01T19:19:04.875Z,11.87
2023-04-01T19:21:48.621Z,11.57
2023-04-01T19:24:27.487Z,8.03
2023-04-01T19:27:15.961Z,9.63
2023-04-01T19:29:57.873Z,11.77
2023-04-01T19:32:43.972Z,9.97
2023-04-01T19:35:13.962Z,11.20
2023-04-01T19:37:51.463Z,12.67
2023-04-01T19:40:39.550Z,16.43
2023-04-01T19:43:28.322Z,11.93
2023-04-01T19:46:07.259Z,10.70
2023-04-01T19:48:40.141Z,15.07
2023-04-01T19:51:18.926Z,13.67
2023-04-01T19:54:33.383Z,12.40
2023-04-01T19:57:18.444Z,12.00
2023-04-01T20:00:11.142Z,21.93
2023-04-01T20:02:52.233Z,14.23
2023-04-01T20:05:34.660Z,14.43
2023-04-01T20:08:10.743Z,10.57
2023-04-01T20:11:28.199Z,10.40
2023-04-01T20:14:38.266Z,8.13
2023-04-01T20:17:36.093Z,7.77
2023-04-01T20:20:11.921Z,4.70
2023-04-01T20:22:46.899Z,4.07
2023-04-01T20:25:32.372Z,3.60
2023-04-01T20:28:18.385Z,4.93
2023-04-01T20:30:53.282Z,5.77
2023-04-01T20:33:48.134Z,4.63
2023-04-01T20:36:46.070Z,2.77
2023-04-01T20:39:47.103Z,3.67
2023-04-01T20:42:22.872Z,2.23
2023-04-01T20:45:05.804Z,2.60
2023-04-01T20:48:10.284Z,3.87
2023-04-01T20:50:53.059Z,2.80
2023-04-01T20:53:41.346Z,5.37
2023-04-01T20:56:23.246Z,4.37
2023-04-01T20:59:03.575Z,2.67
2023-04-01T21:01:42.858Z,4.47
2023-04-01T21:04:43.760Z,3.77
2023-04-01T21:07:19.687Z,3.30
2023-04-01T21:10:13.486Z,3.43
2023-04-01T21:12:43.292Z,4.93
2023-04-01T21:15:31.612Z,2.57
2023-04-01T21:18:16.863Z,1.90
2023-04-01T21:21:06.153Z,2.67
2023-04-01T21:23:51.014Z,2.20
2023-04-01T21:26:40.100Z,2.43
2023-04-01T21:29:22.262Z,2.43
2023-04-01T21:32:17.480Z,3.07
2023-04-01T21:35:01.312Z,3.33
2023-04-01T21:37:46.505Z,3.53
2023-04-01T21:40:13.651Z,3.33
2023-04-01T21:43:02.474Z,3.87
2023-04-01T21:46:07.043Z,4.77
2023-04-01T21:49:11.421Z,3.43
2023-04-01T21:51:44.448Z,3.97
2023-04-01T21:54:23.215Z,4.17
2023-04-01T21:57:26.931Z,3.90
2023-04-01T22:00:12.499Z,3.70
2023-04-01T22:03:00.859Z,3.93
2023-04-01T22:05:56.740Z,5.30
2023-04-01T22:08:45.119Z,3.90
2023-04-01T22:12:02.488Z,5.17
2023-04-01T22:14:42.947Z,5.87
2023-04-01T22:17:24.130Z,3.87
2023-04-01T22:19:58.376Z,4.67
2023-04-01T22:22:31.940Z,3.40
2023-04-01T22:24:58.844Z,4.40
2023-04-01T22:27:34.543Z,3.27
2023-04-01T22:30:29.196Z,2.73
2023-04-01T22:33:01.308Z,2.87
2023-04-01T22:35:59.170Z,3.07
2023-04-01T22:38:58.782Z,3.17
2023-04-01T22:41:41.735Z,4.00
2023-04-01T22:44:23.260Z,3.63
2023-04-01T22:47:18.354Z,3.17
2023-04-01T22:49:56.058Z,2.93
2023-04-01T22:52:34.694Z,4.17
2023-04-01T22:55:09.199Z,4.07
2023-04-01T22:57:42.615Z,2.80
2023-04-01T23:00:35.221Z,3.40
2023-04-01T23:03:07.763Z,3.60
2023-04-01T23:05:40.895Z,3.07
2023-04-01T23:09:04.006Z,3.40
2023-04-01T23:11:56.541Z,4.23
2023-04-01T23:14:27.567Z,4.60
2023-04-01T23:17:03.962Z,3.30
2023-04-01T23:19:38.193Z,2.60
2023-04-01T23:22:25.483Z,3.03
2023-04-01T23:25:05.637Z,3.17
2023-04-01T23:27:39.249Z,2.73
2023-04-01T23:30:41.296Z,3.40
2023-04-01T23:33:20.459Z,2.70
2023-04-01T23:35:52.380Z,3.23
2023-04-01T23:38:21.964Z,2.60
2023-04-01T23:40:51.500Z,3.23
2023-04-01T23:43:43.889Z,3.50
2023-04-01T23:46:13.494Z,3.03
2023-04-01T23:48:45.271Z,3.50
2023-04-01T23:51:28.070Z,3.57
2023-04-01T23:54:17.955Z,4.40
2023-04-01T23:56:49.421Z,4.40
2023-04-01T23:59:25.336Z,2.80
